« 趣味的航空路誌改訂情報 2020/6/18 thu | トップページ | 定点 富山空港 2020/6/20 sat »

2020/06/19

定点 富山空港 2020/6/19 fri

6月16日から運行再開された富山空港の青組さん。再開後、ようやくお姿を拝みにまいりました。

RJNT 182300Z VRB02KT 9999 -RA FEW003 SCT030 BKN035 19/18 Q1000

20200619_rjnt_00ja04an

今日は、チビ

20200619_rjnt_01ja04an

ANA313 RJTT-RJNT JA04AN B737-781

RJNT 190000Z 17003KT 120V240 9999 FEW005 BKN110 21/18 Q0999

20200619_rjnt_02ja6516

JA6516↑ AS350B3 AKF

20200619_rjnt_03ja04an

エプロンでは、横断幕でお見送り

20200619_rjnt_04ja04an

はや!

20200619_rjnt_05ja04an

ANA316 RJNT-RJTT JA04AN B737-781

20200619_rjnt_06ja9690

朝日さんにスパビューが来ていました。

20200619_rjnt_07ja01ad

JA01AD 今日は、お休み 

RJNT 190100Z 34003KT 270V030 9999 FEW010 BKN100 23/18 Q0999

20200619_rjnt_08ja6516

JA6516↓

20200619_rjnt_09ja6516

JA9690 AS332L AKF 他機着陸時は、整備さんが押さえていました。

本日は、ドクヘリさん出ていたけど、夕方土砂降り前にフェリーされました。

|

« 趣味的航空路誌改訂情報 2020/6/18 thu | トップページ | 定点 富山空港 2020/6/20 sat »

富山空港」カテゴリの記事

コメント

コメントを書く



(ウェブ上には掲載しません)


コメントは記事投稿者が公開するまで表示されません。



« 趣味的航空路誌改訂情報 2020/6/18 thu | トップページ | 定点 富山空港 2020/6/20 sat »